Time;durP1;ratioP1;P1;durP2;ratioP2;P2;SDS_P1;SDS_P2;PMS_P1;PMS_P2;Temp;Humidity;BMP_temperature;BMP_pressure;BME280_temperature;BME280_humidity;BME280_pressure;Samples;Min_cycle;Max_cycle;Signal;HPM_P1;HPM_P2
2022/04/06 03:01:32;;;;;;;12.27;11.37;;;10.00;99.90;;;;;;5392387;23;20234;-76
2022/04/06 03:03:58;;;;;;;11.57;10.87;;;10.10;99.90;;;;;;4918299;29;20211;-75
2022/04/06 03:06:24;;;;;;;10.13;9.43;;;10.10;99.90;;;;;;4917083;29;20179;-75
2022/04/06 03:08:50;;;;;;;10.57;9.70;;;10.10;99.90;;;;;;4917734;29;20237;-76
2022/04/06 03:11:15;;;;;;;10.17;9.47;;;10.10;99.90;;;;;;4917892;29;20199;-76
2022/04/06 03:13:41;;;;;;;10.83;10.03;;;10.10;99.90;;;;;;4918680;29;20986;-78
2022/04/06 03:16:07;;;;;;;11.17;10.23;;;10.10;99.90;;;;;;4943436;23;20234;-75
2022/04/06 03:18:33;;;;;;;10.30;9.50;;;10.10;99.90;;;;;;4920099;29;20911;-76
2022/04/06 03:20:59;;;;;;;9.57;8.67;;;10.10;99.90;;;;;;4916540;29;20179;-76
2022/04/06 03:23:25;;;;;;;9.70;9.00;;;10.10;99.90;;;;;;4916429;29;20194;-75
2022/04/06 03:25:50;;;;;;;9.17;8.47;;;10.10;99.90;;;;;;4917959;29;20195;-76
2022/04/06 03:28:16;;;;;;;10.80;9.90;;;10.10;99.90;;;;;;4918741;29;20262;-76
2022/04/06 03:30:42;;;;;;;9.33;8.60;;;10.10;99.90;;;;;;4916702;29;20191;-75
2022/04/06 03:33:09;;;;;;;10.60;9.20;;;10.10;99.90;;;;;;4900017;29;20183;-76
2022/04/06 03:35:36;;;;;;;9.87;8.97;;;10.10;99.90;;;;;;4898940;29;20227;-76
2022/04/06 03:38:02;;;;;;;9.87;9.07;;;10.10;99.90;;;;;;4898558;29;20373;-76
2022/04/06 03:40:30;;;;;;;9.43;8.63;;;10.10;99.90;;;;;;4898711;29;20180;-76
2022/04/06 03:42:57;;;;;;;9.83;9.13;;;10.10;99.90;;;;;;4915212;29;20187;-77
2022/04/06 03:45:23;;;;;;;9.40;8.60;;;10.10;99.90;;;;;;4916390;29;20310;-76
2022/04/06 03:47:48;;;;;;;9.33;8.20;;;10.10;99.90;;;;;;4918302;29;20215;-76
2022/04/06 03:50:15;;;;;;;9.17;8.37;;;10.10;99.90;;;;;;4917151;29;20238;-76
2022/04/06 03:52:41;;;;;;;8.87;8.17;;;10.10;99.90;;;;;;4917435;29;20198;-76
2022/04/06 03:55:08;;;;;;;9.00;8.30;;;10.10;99.90;;;;;;4917546;29;20203;-76
2022/04/06 03:57:38;;;;;;;9.70;8.70;;;10.10;99.90;;;;;;4917059;29;20187;-76
2022/04/06 04:00:06;;;;;;;10.80;9.63;;;10.10;99.90;;;;;;4909003;29;20287;-76
2022/04/06 04:02:32;;;;;;;11.37;8.93;;;10.10;99.90;;;;;;4893143;29;20206;-76
2022/04/06 04:04:57;;;;;;;9.10;8.40;;;10.10;99.90;;;;;;4898604;29;20708;-76
2022/04/06 04:07:23;;;;;;;9.47;8.73;;;10.10;99.90;;;;;;4893186;29;20210;-76
2022/04/06 04:09:50;;;;;;;9.53;8.80;;;10.10;99.90;;;;;;4888651;29;20275;-75
2022/04/06 04:12:17;;;;;;;9.73;8.80;;;10.10;99.90;;;;;;4911702;29;20547;-75
2022/04/06 04:14:44;;;;;;;9.87;8.93;;;10.10;99.90;;;;;;4916249;29;20211;-75
2022/04/06 04:17:12;;;;;;;9.33;8.57;;;10.10;99.90;;;;;;4915065;29;20193;-76
2022/04/06 04:19:38;;;;;;;9.40;8.70;;;10.00;99.90;;;;;;4916793;29;20187;-76
2022/04/06 04:22:04;;;;;;;9.63;8.67;;;10.00;99.90;;;;;;4901982;29;20184;-76
2022/04/06 04:24:30;;;;;;;9.70;8.80;;;10.00;99.90;;;;;;4910966;29;20219;-76
2022/04/06 04:26:56;;;;;;;9.73;8.87;;;10.10;99.90;;;;;;4915235;29;20175;-76
2022/04/06 04:29:21;;;;;;;9.60;8.80;;;10.10;99.90;;;;;;4916515;29;20710;-76
2022/04/06 04:31:47;;;;;;;9.90;9.00;;;10.10;99.90;;;;;;4910289;29;20175;-75
2022/04/06 04:34:14;;;;;;;9.60;8.80;;;10.10;99.90;;;;;;4916321;29;20190;-76
2022/04/06 04:36:40;;;;;;;9.83;8.93;;;10.10;99.90;;;;;;4916469;29;20186;-76
2022/04/06 04:39:06;;;;;;;9.87;9.17;;;10.10;99.90;;;;;;4915865;29;20188;-75
2022/04/06 04:41:33;;;;;;;9.77;8.93;;;10.20;99.90;;;;;;4912581;29;20195;-75
2022/04/06 04:43:59;;;;;;;10.47;9.67;;;10.10;99.90;;;;;;4897606;29;20223;-75
2022/04/06 04:46:25;;;;;;;10.90;10.00;;;10.20;99.90;;;;;;4900521;29;20208;-74
2022/04/06 04:48:51;;;;;;;10.70;9.77;;;10.20;99.90;;;;;;4915268;29;20636;-75
2022/04/06 04:51:17;;;;;;;10.07;9.17;;;10.20;99.90;;;;;;4916430;29;20186;-75
2022/04/06 04:53:42;;;;;;;10.97;10.00;;;10.20;99.90;;;;;;4915748;29;20612;-75
2022/04/06 04:56:09;;;;;;;10.70;9.80;;;10.20;99.90;;;;;;4916394;29;20203;-75
2022/04/06 04:58:35;;;;;;;11.07;10.27;;;10.20;99.90;;;;;;4901906;29;20247;-75
2022/04/06 05:01:01;;;;;;;10.27;9.50;;;10.20;99.90;;;;;;4895392;29;20175;-73
2022/04/06 05:03:27;;;;;;;10.93;9.93;;;10.20;99.90;;;;;;4895968;29;20215;-73
2022/04/06 05:05:54;;;;;;;10.80;9.83;;;10.20;99.90;;;;;;4896470;29;20238;-72
2022/04/06 05:08:21;;;;;;;10.70;10.00;;;10.20;99.90;;;;;;4903371;29;20174;-72
2022/04/06 05:10:46;;;;;;;11.13;10.23;;;10.10;99.90;;;;;;4914599;29;20191;-73
2022/04/06 05:13:14;;;;;;;11.10;10.00;;;10.10;99.90;;;;;;4915941;29;20186;-73
2022/04/06 05:15:40;;;;;;;11.03;10.23;;;10.20;99.90;;;;;;4914210;29;20241;-73
2022/04/06 05:18:06;;;;;;;10.93;10.13;;;10.20;99.90;;;;;;4906338;29;20192;-73
2022/04/06 05:20:32;;;;;;;11.50;10.70;;;10.20;99.90;;;;;;4896866;29;20206;-74
2022/04/06 05:22:58;;;;;;;10.73;9.87;;;10.20;99.90;;;;;;4901232;29;20198;-74
2022/04/06 05:25:24;;;;;;;12.33;11.43;;;10.20;99.90;;;;;;4914495;29;20215;-74
2022/04/06 05:27:52;;;;;;;11.83;10.93;;;10.20;99.90;;;;;;4914781;29;20183;-73
2022/04/06 05:30:20;;;;;;;11.87;10.87;;;10.20;99.90;;;;;;4904500;29;20187;-73
2022/04/06 05:32:49;;;;;;;11.33;10.53;;;10.20;99.90;;;;;;4896447;29;20184;-73
2022/04/06 05:35:15;;;;;;;12.00;11.20;;;10.30;99.90;;;;;;4894395;29;20203;-74
2022/04/06 05:37:42;;;;;;;12.83;11.83;;;10.30;99.90;;;;;;4897160;29;20176;-73
2022/04/06 05:40:10;;;;;;;13.77;12.77;;;10.30;99.90;;;;;;4896485;29;20267;-73
2022/04/06 05:42:37;;;;;;;14.33;13.13;;;10.30;99.90;;;;;;4895054;29;20329;-73
2022/04/06 05:45:04;;;;;;;15.73;14.53;;;10.30;99.90;;;;;;4895533;29;20222;-73
2022/04/06 05:47:30;;;;;;;13.87;12.67;;;10.30;99.90;;;;;;4879069;29;20179;-72
2022/04/06 05:49:56;;;;;;;12.47;11.47;;;10.40;99.90;;;;;;4894981;29;20194;-73
2022/04/06 05:52:22;;;;;;;12.50;11.40;;;10.40;99.90;;;;;;4891580;29;20240;-72
2022/04/06 05:54:47;;;;;;;13.70;12.60;;;10.30;99.90;;;;;;4895749;29;20226;-72
2022/04/06 05:57:13;;;;;;;13.17;12.10;;;10.30;99.90;;;;;;4895523;29;20180;-72
2022/04/06 05:59:42;;;;;;;13.63;12.73;;;10.30;99.90;;;;;;4895626;29;20187;-72
2022/04/06 06:02:07;;;;;;;14.80;13.80;;;10.40;99.90;;;;;;4894391;29;20198;-72
2022/04/06 06:04:34;;;;;;;17.67;16.57;;;10.40;99.90;;;;;;4894795;29;20377;-73
2022/04/06 06:07:00;;;;;;;15.10;14.10;;;10.40;99.90;;;;;;4898413;29;20188;-72
2022/04/06 06:09:27;;;;;;;14.73;13.53;;;10.50;99.90;;;;;;4911811;29;20272;-72
2022/04/06 06:11:54;;;;;;;15.23;14.20;;;10.50;99.90;;;;;;4889017;29;20180;-72
2022/04/06 06:14:21;;;;;;;14.13;13.23;;;10.50;99.90;;;;;;4898773;29;20215;-72
2022/04/06 06:16:47;;;;;;;13.50;12.33;;;10.50;99.90;;;;;;4896510;29;20184;-72
2022/04/06 06:19:12;;;;;;;15.30;14.37;;;10.60;99.90;;;;;;4897903;29;20188;-72
2022/04/06 06:21:38;;;;;;;22.83;21.17;;;10.60;99.90;;;;;;4894552;29;20277;-72
2022/04/06 06:24:06;;;;;;;22.13;20.73;;;10.60;99.90;;;;;;4895778;29;20731;-74
2022/04/06 06:26:37;;;;;;;16.90;15.90;;;10.70;99.90;;;;;;4895192;29;20292;-73
2022/04/06 06:29:03;;;;;;;18.50;17.33;;;10.70;99.90;;;;;;4900302;29;20623;-73
2022/04/06 06:31:30;;;;;;;38.77;36.50;;;10.80;99.90;;;;;;4895831;29;20184;-73
2022/04/06 06:33:57;;;;;;;61.33;58.00;;;10.80;99.90;;;;;;4894879;29;20184;-74
2022/04/06 06:36:23;;;;;;;74.87;70.83;;;10.80;99.90;;;;;;4894572;29;20200;-75
2022/04/06 06:38:51;;;;;;;76.03;72.07;;;10.90;99.90;;;;;;4896479;29;20188;-74
2022/04/06 06:41:17;;;;;;;72.43;68.63;;;10.90;99.90;;;;;;4894766;29;20187;-74
2022/04/06 06:43:45;;;;;;;85.93;81.20;;;11.00;99.90;;;;;;4889069;29;20671;-74
2022/04/06 06:46:11;;;;;;;86.47;82.07;;;11.00;99.90;;;;;;4876922;29;20209;-73
2022/04/06 06:48:37;;;;;;;88.57;83.97;;;11.10;99.90;;;;;;4904248;29;20191;-74
2022/04/06 06:51:04;;;;;;;77.43;73.30;;;11.10;99.90;;;;;;4913105;29;20558;-74
2022/04/06 06:53:30;;;;;;;71.03;67.27;;;11.20;99.90;;;;;;4914694;29;20186;-75
2022/04/06 06:55:56;;;;;;;72.03;68.20;;;11.20;99.90;;;;;;4914867;29;20266;-74
2022/04/06 06:58:22;;;;;;;35.43;33.47;;;11.20;99.90;;;;;;4908961;29;20187;-74
2022/04/06 07:00:48;;;;;;;24.23;22.87;;;11.30;99.90;;;;;;4900266;29;20198;-73
2022/04/06 07:03:14;;;;;;;16.13;15.10;;;11.30;99.90;;;;;;4913287;29;20188;-73
2022/04/06 07:05:39;;;;;;;10.43;9.67;;;11.40;99.90;;;;;;4914427;29;20227;-73
2022/04/06 07:08:06;;;;;;;9.97;9.17;;;11.50;99.90;;;;;;4906757;29;20558;-74
2022/04/06 07:10:32;;;;;;;9.27;8.57;;;11.60;99.90;;;;;;4894741;29;20196;-73
2022/04/06 07:13:00;;;;;;;9.33;8.53;;;11.60;99.90;;;;;;4896290;29;20273;-73
2022/04/06 07:15:26;;;;;;;8.50;8.00;;;11.70;99.90;;;;;;4896260;29;20226;-74
2022/04/06 07:17:58;;;;;;;8.37;7.73;;;11.80;99.90;;;;;;4899728;29;20240;-73
2022/04/06 07:20:27;;;;;;;8.90;8.20;;;11.90;99.90;;;;;;4913460;29;20660;-73
2022/04/06 07:22:53;;;;;;;8.90;8.13;;;12.00;99.90;;;;;;4913288;29;20189;-73
2022/04/06 07:25:19;;;;;;;8.20;7.60;;;12.00;99.90;;;;;;4913302;29;20226;-73
2022/04/06 07:27:45;;;;;;;7.67;7.10;;;12.10;99.90;;;;;;4910764;29;20190;-73
2022/04/06 07:30:13;;;;;;;7.10;6.70;;;12.10;99.90;;;;;;4894524;29;20751;-73
2022/04/06 07:32:39;;;;;;;6.90;6.40;;;12.10;99.90;;;;;;4894284;29;20184;-73
2022/04/06 07:35:06;;;;;;;8.27;7.80;;;12.20;99.90;;;;;;4898255;29;20207;-72
2022/04/06 07:37:43;;;;;;;8.83;8.07;;;12.20;99.90;;;;;;4899787;29;20188;-72
2022/04/06 07:40:11;;;;;;;9.57;8.73;;;12.10;99.90;;;;;;4899608;29;20193;-72
2022/04/06 07:42:39;;;;;;;11.50;10.80;;;12.20;99.90;;;;;;4897943;29;20278;-71
2022/04/06 07:45:07;;;;;;;9.43;8.73;;;12.30;99.90;;;;;;4897524;29;20270;-73
2022/04/06 07:47:34;;;;;;;14.53;13.70;;;12.50;99.90;;;;;;4898493;29;20178;-72
2022/04/06 07:50:03;;;;;;;19.20;18.10;;;12.80;99.90;;;;;;4916636;29;20192;-72
2022/04/06 07:52:30;;;;;;;17.20;16.40;;;13.10;99.90;;;;;;4916394;29;20209;-72
2022/04/06 07:54:56;;;;;;;14.03;13.23;;;13.30;99.90;;;;;;4916610;29;20246;-73
2022/04/06 07:57:24;;;;;;;8.83;8.43;;;13.70;99.90;;;;;;4917224;29;20189;-72
2022/04/06 07:59:51;;;;;;;6.07;5.80;;;13.90;99.90;;;;;;4898730;29;20584;-72
2022/04/06 08:02:17;;;;;;;6.57;6.17;;;13.90;99.90;;;;;;4898689;29;20274;-73
2022/04/06 08:04:43;;;;;;;5.07;4.67;;;13.80;99.90;;;;;;4898358;29;20279;-73
2022/04/06 08:07:08;;;;;;;4.83;4.63;;;13.80;99.90;;;;;;4897537;29;20190;-73
2022/04/06 08:09:34;;;;;;;4.90;4.70;;;13.50;99.90;;;;;;4913867;29;20339;-73
2022/04/06 08:12:01;;;;;;;4.90;4.70;;;13.50;99.90;;;;;;4916195;29;20214;-73
2022/04/06 08:14:28;;;;;;;5.47;5.17;;;13.60;99.90;;;;;;4916965;29;20190;-72
2022/04/06 08:16:55;;;;;;;4.47;4.23;;;13.70;99.90;;;;;;4916930;29;20338;-72
2022/04/06 08:19:22;;;;;;;4.70;4.50;;;13.90;99.90;;;;;;4916453;29;20229;-72
2022/04/06 08:21:52;;;;;;;3.93;3.80;;;14.10;99.90;;;;;;4917102;29;20198;-72
2022/04/06 08:24:19;;;;;;;5.37;5.00;;;14.20;99.90;;;;;;4917064;29;20587;-72
2022/04/06 08:26:46;;;;;;;5.30;5.00;;;14.30;99.90;;;;;;4916878;29;20665;-72
2022/04/06 08:29:12;;;;;;;7.87;7.30;;;14.40;99.90;;;;;;4907025;29;20183;-72
2022/04/06 08:31:38;;;;;;;7.23;6.93;;;14.40;99.90;;;;;;4897082;29;20187;-72
2022/04/06 08:34:05;;;;;;;8.60;8.20;;;14.20;99.90;;;;;;4897042;29;20624;-73
2022/04/06 08:36:32;;;;;;;8.73;8.13;;;14.00;99.90;;;;;;4896662;29;20716;-72
2022/04/06 08:38:59;;;;;;;7.90;7.50;;;13.90;99.90;;;;;;4908563;29;20195;-72
2022/04/06 08:41:28;;;;;;;6.77;6.37;;;14.00;99.90;;;;;;4915726;29;20183;-72
2022/04/06 08:43:58;;;;;;;8.87;8.37;;;14.10;99.90;;;;;;4916663;29;20211;-72
2022/04/06 08:46:25;;;;;;;7.70;7.40;;;13.90;99.90;;;;;;4915260;29;20261;-72
2022/04/06 08:48:52;;;;;;;6.53;6.13;;;13.70;99.90;;;;;;4905984;29;20257;-72
2022/04/06 08:51:19;;;;;;;5.23;4.93;;;13.70;99.90;;;;;;4897944;29;20191;-72
2022/04/06 08:53:47;;;;;;;7.80;7.40;;;13.70;99.90;;;;;;4896553;29;20173;-72
2022/04/06 08:56:14;;;;;;;6.50;6.00;;;13.70;99.90;;;;;;4896420;29;20299;-73
2022/04/06 08:58:41;;;;;;;7.70;7.33;;;13.90;99.90;;;;;;4897340;29;20612;-73
2022/04/06 09:01:07;;;;;;;11.33;10.73;;;14.10;99.90;;;;;;4886392;29;20198;-73
2022/04/06 09:03:37;;;;;;;8.73;8.37;;;14.20;99.90;;;;;;4880472;29;20188;-73
2022/04/06 09:06:11;;;;;;;8.63;8.23;;;14.10;99.90;;;;;;4907603;29;20225;-73
2022/04/06 09:08:40;;;;;;;5.43;5.13;;;14.30;99.90;;;;;;4914160;29;20214;-72
2022/04/06 09:11:14;;;;;;;8.77;8.40;;;14.20;99.90;;;;;;4916342;29;20274;-73
2022/04/06 09:13:42;;;;;;;9.80;9.30;;;14.30;99.90;;;;;;4914332;29;20190;-73
2022/04/06 09:16:13;;;;;;;5.10;4.90;;;14.80;99.90;;;;;;4935623;23;20242;-70
2022/04/06 09:18:44;;;;;;;5.90;5.70;;;15.30;99.90;;;;;;4913941;29;20183;-70
2022/04/06 09:21:13;;;;;;;7.07;6.77;;;15.60;99.90;;;;;;4915249;29;20187;-71
2022/04/06 09:23:39;;;;;;;6.77;6.37;;;16.00;99.90;;;;;;4915352;29;20257;-71
2022/04/06 09:26:07;;;;;;;4.77;4.57;;;15.90;99.90;;;;;;4903599;29;20206;-71
2022/04/06 09:28:37;;;;;;;5.20;4.80;;;16.20;99.90;;;;;;4894726;29;20176;-71
2022/04/06 09:31:03;;;;;;;5.00;4.80;;;16.50;99.90;;;;;;4896811;29;20183;-71
2022/04/06 09:33:29;;;;;;;6.17;5.67;;;17.00;99.90;;;;;;4895268;29;20771;-71
2022/04/06 09:35:58;;;;;;;4.57;4.37;;;17.40;99.90;;;;;;4895922;29;20636;-72
2022/04/06 09:38:31;;;;;;;7.23;6.97;;;17.40;99.90;;;;;;4894914;29;20570;-71
2022/04/06 09:41:06;;;;;;;14.73;13.93;;;17.50;99.90;;;;;;4896722;29;20539;-71
2022/04/06 09:43:34;;;;;;;24.50;23.37;;;17.70;99.90;;;;;;4906217;29;20202;-71
2022/04/06 09:49:20;;;;;;;17.97;17.17;;;18.60;99.90;;;;;;4873334;29;20180;-72
2022/04/06 09:51:50;;;;;;;8.33;8.00;;;18.60;99.90;;;;;;4894959;29;20194;-73
2022/04/06 09:54:17;;;;;;;5.00;4.70;;;18.40;99.90;;;;;;4892868;29;20207;-71
2022/04/06 09:56:44;;;;;;;4.23;4.13;;;17.90;99.90;;;;;;4880926;29;20689;-72
2022/04/06 09:59:12;;;;;;;8.53;8.23;;;17.40;99.90;;;;;;4893940;29;20265;-72
2022/04/06 10:01:52;;;;;;;11.77;11.17;;;17.40;99.90;;;;;;4913902;29;20270;-73
2022/04/06 10:04:21;;;;;;;24.13;23.07;;;17.50;99.90;;;;;;4915647;29;20691;-72
2022/04/06 10:06:49;;;;;;;33.40;31.73;;;17.70;99.90;;;;;;4895879;29;20207;-76
2022/04/06 10:09:15;;;;;;;6.13;5.83;;;18.60;99.90;;;;;;4896182;29;20207;-71
2022/04/06 10:11:42;;;;;;;4.00;3.80;;;19.40;99.90;;;;;;4896171;29;20219;-73
2022/04/06 10:14:09;;;;;;;5.53;5.13;;;19.50;99.90;;;;;;4896291;29;20666;-69
2022/04/06 10:16:38;;;;;;;6.30;6.00;;;19.00;99.90;;;;;;4895678;29;20237;-70
2022/04/06 10:19:07;;;;;;;4.87;4.67;;;18.20;99.90;;;;;;4895796;29;20273;-72
2022/04/06 10:21:45;;;;;;;5.50;5.30;;;17.90;99.90;;;;;;4894958;29;20614;-72
2022/04/06 10:24:30;;;;;;;3.80;3.70;;;17.60;99.90;;;;;;4895787;29;20211;-72
2022/04/06 10:27:25;;;;;;;3.60;3.43;;;17.40;99.90;;;;;;4895042;29;20207;-73
2022/04/06 10:30:14;;;;;;;4.13;3.83;;;17.60;99.90;;;;;;4895872;29;20249;-72
2022/04/06 10:32:50;;;;;;;3.47;3.37;;;17.30;99.90;;;;;;4886580;29;20683;-72
2022/04/06 10:35:27;;;;;;;3.43;3.33;;;17.50;99.90;;;;;;4894811;29;20262;-72
2022/04/06 10:37:53;;;;;;;4.80;4.50;;;18.10;99.90;;;;;;4893893;29;20199;-72
2022/04/06 10:40:21;;;;;;;4.43;4.33;;;17.90;99.90;;;;;;4895485;29;20184;-72
2022/04/06 10:42:47;;;;;;;5.80;5.47;;;18.00;99.90;;;;;;4894367;29;20243;-72
2022/04/06 10:45:24;;;;;;;6.37;6.17;;;18.10;99.90;;;;;;4893725;29;20627;-72
2022/04/06 10:48:09;;;;;;;5.30;5.10;;;18.30;99.90;;;;;;4895386;29;20194;-72
2022/04/06 10:50:35;;;;;;;4.40;4.30;;;18.60;99.90;;;;;;4894411;29;20187;-72
2022/04/06 10:53:21;;;;;;;4.30;4.20;;;18.60;98.60;;;;;;4895403;29;20242;-71
2022/04/06 10:56:01;;;;;;;4.90;4.70;;;18.10;99.90;;;;;;4895131;29;20212;-71
2022/04/06 10:58:26;;;;;;;4.20;3.83;;;18.20;99.90;;;;;;4894006;29;20274;-72
2022/04/06 11:01:18;;;;;;;4.30;4.20;;;18.80;99.70;;;;;;4895379;29;20716;-72
2022/04/06 11:04:05;;;;;;;3.67;3.57;;;19.20;99.80;;;;;;4894102;29;20192;-72
2022/04/06 11:06:49;;;;;;;3.50;3.40;;;19.50;98.80;;;;;;4895121;29;20214;-72
2022/04/06 11:12:15;;;;;;;3.30;3.17;;;19.80;98.80;;;;;;4899304;29;20194;-73
2022/04/06 11:14:42;;;;;;;3.30;3.20;;;20.70;96.80;;;;;;4897040;29;20188;-73
2022/04/06 11:17:32;;;;;;;3.23;3.03;;;21.60;95.90;;;;;;4897486;29;20366;-73
2022/04/06 11:20:03;;;;;;;4.20;4.10;;;21.10;90.80;;;;;;4898518;29;20242;-73
2022/04/06 11:22:29;;;;;;;3.47;3.37;;;20.80;92.20;;;;;;4897949;29;20191;-72
2022/04/06 11:24:55;;;;;;;5.10;4.90;;;20.70;92.90;;;;;;4898400;29;20222;-72
2022/04/06 11:27:35;;;;;;;4.50;4.30;;;20.40;92.20;;;;;;4897166;29;20194;-72
2022/04/06 11:30:22;;;;;;;4.20;4.10;;;19.40;92.00;;;;;;4898629;29;20198;-72
2022/04/06 11:32:53;;;;;;;3.10;3.00;;;18.90;93.60;;;;;;4898756;29;20251;-72
2022/04/06 11:35:20;;;;;;;3.40;3.30;;;18.50;94.40;;;;;;4890364;29;20696;-72
2022/04/06 11:37:49;;;;;;;3.60;3.50;;;17.60;94.70;;;;;;4878858;29;20566;-71
2022/04/06 11:40:26;;;;;;;3.80;3.70;;;17.40;96.60;;;;;;4878716;29;20563;-72
2022/04/06 11:42:55;;;;;;;3.37;3.17;;;18.40;95.50;;;;;;4879846;29;20264;-71
2022/04/06 11:45:26;;;;;;;3.57;3.47;;;18.20;94.30;;;;;;4886271;29;20585;-72
2022/04/06 11:47:59;;;;;;;3.10;3.00;;;19.00;94.40;;;;;;4905671;29;20261;-71
2022/04/06 11:50:39;;;;;;;3.03;3.03;;;19.70;92.90;;;;;;4910078;29;20533;-72
2022/04/06 11:53:08;;;;;;;3.10;3.00;;;19.60;91.60;;;;;;4896898;29;20716;-72
2022/04/06 11:55:47;;;;;;;5.10;4.90;;;20.40;91.90;;;;;;4898016;29;20219;-72
2022/04/06 11:58:41;;;;;;;4.13;3.93;;;20.80;90.60;;;;;;4896697;29;20656;-73
2022/04/06 12:01:13;;;;;;;4.50;4.40;;;19.70;90.30;;;;;;4897259;29;20644;-72
2022/04/06 12:03:42;;;;;;;6.97;6.57;;;19.20;91.10;;;;;;4898402;29;20206;-72
2022/04/06 12:06:10;;;;;;;4.90;4.60;;;18.60;92.10;;;;;;4897770;29;20211;-73
2022/04/06 12:08:36;;;;;;;4.73;4.43;;;18.40;93.10;;;;;;4897475;29;20239;-73
2022/04/06 12:11:04;;;;;;;9.77;9.07;;;19.30;93.30;;;;;;4898052;29;20247;-73
2022/04/06 12:13:35;;;;;;;7.10;6.60;;;20.20;90.40;;;;;;4898083;29;20188;-72
2022/04/06 12:16:03;;;;;;;4.97;4.77;;;20.00;86.30;;;;;;4895548;29;20379;-73
2022/04/06 12:18:29;;;;;;;8.90;8.40;;;19.10;88.70;;;;;;4895789;29;20180;-73
2022/04/06 12:20:55;;;;;;;4.97;4.77;;;18.30;91.40;;;;;;4897225;29;20184;-72
2022/04/06 12:23:24;;;;;;;3.67;3.57;;;17.90;92.80;;;;;;4896585;29;20279;-72
2022/04/06 12:25:51;;;;;;;4.03;3.67;;;17.70;92.70;;;;;;4895973;29;20265;-72
2022/04/06 12:28:21;;;;;;;3.77;3.57;;;18.30;92.60;;;;;;4897316;29;20244;-73
2022/04/06 12:31:03;;;;;;;4.10;3.90;;;18.80;91.60;;;;;;4897255;29;20188;-72
2022/04/06 12:33:48;;;;;;;4.40;4.10;;;18.90;90.50;;;;;;4896775;29;20223;-72
2022/04/06 12:36:22;;;;;;;4.77;4.57;;;18.70;91.10;;;;;;4896026;29;20207;-72
2022/04/06 12:39:02;;;;;;;5.27;5.07;;;20.30;91.00;;;;;;4896208;29;20194;-72
2022/04/06 12:41:32;;;;;;;5.50;5.30;;;21.80;82.80;;;;;;4897615;29;20320;-72
2022/04/06 12:44:00;;;;;;;7.20;6.73;;;22.40;80.00;;;;;;4897306;29;20187;-72
2022/04/06 12:46:38;;;;;;;6.73;6.43;;;22.10;77.10;;;;;;4897268;29;20207;-72
2022/04/06 12:49:39;;;;;;;5.43;5.23;;;21.20;79.90;;;;;;4897392;29;20184;-72
2022/04/06 12:52:07;;;;;;;7.10;6.90;;;19.70;83.60;;;;;;4897780;29;20183;-72
2022/04/06 12:54:34;;;;;;;4.83;4.63;;;19.10;87.40;;;;;;4897290;29;20274;-70
2022/04/06 12:57:15;;;;;;;7.27;7.00;;;19.00;90.60;;;;;;4895569;29;20184;-71
2022/04/06 12:59:42;;;;;;;9.73;9.33;;;19.00;89.30;;;;;;4897222;29;20183;-72
2022/04/06 13:02:27;;;;;;;5.77;5.57;;;19.90;87.10;;;;;;4897051;29;20184;-72
2022/04/06 13:05:13;;;;;;;5.53;5.37;;;20.20;86.40;;;;;;4895604;29;20226;-71
2022/04/06 13:07:41;;;;;;;7.27;6.97;;;21.20;80.90;;;;;;4893875;29;20195;-71
2022/04/06 13:10:12;;;;;;;7.57;6.93;;;21.50;77.20;;;;;;4897003;29;20243;-71
2022/04/06 13:12:39;;;;;;;11.37;10.90;;;21.60;76.40;;;;;;4895701;29;20184;-71
2022/04/06 13:15:06;;;;;;;12.93;12.43;;;22.00;75.30;;;;;;4896462;29;20213;-70
2022/04/06 13:17:34;;;;;;;14.53;13.83;;;22.40;70.70;;;;;;4895356;29;20191;-71
2022/04/06 13:20:00;;;;;;;13.90;13.20;;;22.70;70.80;;;;;;4897838;29;20641;-70
2022/04/06 13:22:26;;;;;;;10.40;9.90;;;22.50;67.70;;;;;;4897049;29;20192;-71
2022/04/06 13:24:52;;;;;;;16.27;15.47;;;21.00;70.70;;;;;;4896679;29;20582;-72
2022/04/06 13:27:21;;;;;;;25.93;24.67;;;20.20;73.90;;;;;;4895885;29;20228;-71
2022/04/06 13:29:48;;;;;;;22.50;21.47;;;20.60;75.10;;;;;;4896173;29;20194;-69
2022/04/06 13:32:14;;;;;;;17.00;15.97;;;20.30;72.90;;;;;;4895867;29;20192;-70
2022/04/06 13:34:40;;;;;;;19.40;18.60;;;20.50;75.60;;;;;;4896321;29;20224;-70
2022/04/06 13:37:07;;;;;;;6.80;6.60;;;19.20;75.50;;;;;;4895903;29;20568;-71
2022/04/06 13:39:33;;;;;;;5.93;5.73;;;18.40;78.20;;;;;;4896365;29;20192;-70
2022/04/06 13:42:00;;;;;;;6.00;5.80;;;18.90;78.90;;;;;;4896206;29;20184;-70
2022/04/06 13:44:30;;;;;;;5.87;5.67;;;20.30;76.60;;;;;;4895992;29;20302;-71
2022/04/06 13:46:58;;;;;;;8.73;8.43;;;20.20;76.70;;;;;;4894296;29;20206;-70
2022/04/06 13:49:24;;;;;;;5.73;5.53;;;19.20;76.30;;;;;;4891593;29;20187;-70
2022/04/06 13:51:51;;;;;;;3.93;3.83;;;18.70;81.30;;;;;;4901690;29;20656;-70
2022/04/06 13:54:19;;;;;;;3.80;3.70;;;18.70;83.00;;;;;;4895880;29;20194;-70
2022/04/06 13:56:47;;;;;;;2.90;2.90;;;18.40;81.30;;;;;;4894561;29;20254;-70
2022/04/06 13:59:14;;;;;;;10.57;9.87;;;18.00;83.00;;;;;;4894904;29;20188;-69
2022/04/06 14:01:40;;;;;;;7.67;7.27;;;17.80;86.90;;;;;;4889084;29;20830;-69
2022/04/06 14:04:07;;;;;;;10.97;10.53;;;17.60;83.50;;;;;;4889000;29;20222;-71
2022/04/06 14:06:33;;;;;;;15.60;14.87;;;17.40;84.30;;;;;;4895696;29;20204;-68
2022/04/06 14:08:59;;;;;;;14.43;13.53;;;17.30;85.00;;;;;;4895027;29;20270;-69
2022/04/06 14:11:26;;;;;;;14.47;13.87;;;18.10;82.80;;;;;;4895693;29;20187;-71
2022/04/06 14:13:52;;;;;;;11.40;10.90;;;18.00;81.90;;;;;;4895667;29;20773;-69
2022/04/06 14:16:18;;;;;;;14.70;14.10;;;17.70;82.90;;;;;;4894476;29;20215;-69
2022/04/06 14:18:45;;;;;;;12.50;11.97;;;17.50;86.10;;;;;;4895546;29;20610;-71
2022/04/06 14:21:12;;;;;;;12.57;12.07;;;17.70;85.90;;;;;;4895803;29;20235;-69
2022/04/06 14:23:40;;;;;;;15.43;14.73;;;18.00;82.40;;;;;;4895375;29;20176;-69
2022/04/06 14:26:10;;;;;;;6.23;6.03;;;18.90;82.90;;;;;;4896371;29;20219;-69
2022/04/06 14:28:38;;;;;;;4.73;4.63;;;21.10;79.90;;;;;;4894899;29;20180;-70
2022/04/06 14:31:05;;;;;;;5.67;5.47;;;20.60;78.30;;;;;;4898903;29;20207;-68
2022/04/06 14:33:32;;;;;;;3.70;3.60;;;19.30;82.20;;;;;;4895210;29;20267;-69
2022/04/06 14:35:58;;;;;;;12.07;11.40;;;18.60;86.70;;;;;;4895073;29;20207;-68
2022/04/06 14:38:24;;;;;;;15.33;14.73;;;18.10;88.00;;;;;;4895091;29;20195;-68
2022/04/06 14:40:50;;;;;;;14.67;14.07;;;18.00;90.10;;;;;;4895594;29;20192;-70
2022/04/06 14:43:20;;;;;;;11.83;11.23;;;17.90;89.70;;;;;;4897158;29;20301;-68
2022/04/06 14:45:47;;;;;;;13.13;12.57;;;17.70;88.80;;;;;;4897931;29;20226;-68
2022/04/06 14:48:13;;;;;;;10.83;10.33;;;17.40;87.30;;;;;;4901526;29;20182;-69
2022/04/06 14:50:39;;;;;;;6.63;6.23;;;17.20;88.60;;;;;;4917381;29;20193;-70
2022/04/06 14:53:06;;;;;;;7.37;7.07;;;17.20;89.70;;;;;;4917744;29;20694;-72
2022/04/06 14:55:34;;;;;;;6.80;6.53;;;17.50;88.30;;;;;;4912036;29;20215;-73
2022/04/06 14:57:59;;;;;;;9.93;9.43;;;17.70;88.10;;;;;;4897944;29;20192;-72
2022/04/06 15:00:28;;;;;;;13.37;12.73;;;18.00;85.90;;;;;;4899097;29;20191;-73
2022/04/06 15:02:55;;;;;;;13.17;12.67;;;17.90;85.70;;;;;;4899276;29;20183;-73
2022/04/06 15:05:21;;;;;;;8.50;8.03;;;17.90;86.90;;;;;;4899619;29;20227;-73
2022/04/06 15:07:47;;;;;;;12.80;12.30;;;18.00;88.60;;;;;;4896688;29;20827;-73
2022/04/06 15:10:13;;;;;;;13.17;12.67;;;18.10;87.90;;;;;;4899110;29;20184;-73
2022/04/06 15:12:39;;;;;;;14.30;13.70;;;18.00;83.90;;;;;;4899143;29;20184;-73
2022/04/06 15:15:06;;;;;;;13.53;13.03;;;17.90;86.20;;;;;;4921059;23;20594;-77
2022/04/06 15:17:31;;;;;;;16.17;15.23;;;17.90;87.10;;;;;;4917482;29;20187;-77
2022/04/06 15:19:57;;;;;;;14.00;13.00;;;17.80;86.90;;;;;;4917314;29;20187;-77
2022/04/06 15:22:23;;;;;;;13.70;12.70;;;17.70;89.10;;;;;;4918676;29;20254;-77
2022/04/06 15:24:49;;;;;;;13.10;12.13;;;17.80;88.00;;;;;;4916342;29;20305;-78
2022/04/06 15:27:15;;;;;;;16.00;14.70;;;17.90;89.20;;;;;;4899061;29;20188;-78
2022/04/06 15:29:40;;;;;;;17.17;15.80;;;18.70;88.30;;;;;;4898418;29;20179;-77
2022/04/06 15:32:07;;;;;;;9.63;9.03;;;19.90;82.00;;;;;;4899277;29;20187;-78
2022/04/06 15:37:22;;;;;;;10.83;10.33;;;18.40;83.70;;;;;;4898818;29;20236;-77
2022/04/06 15:39:56;;;;;;;17.47;16.63;;;18.00;85.40;;;;;;4899406;29;20686;-78
2022/04/06 15:42:26;;;;;;;13.83;13.23;;;18.00;85.80;;;;;;4902343;29;20219;-78
2022/04/06 15:45:00;;;;;;;8.40;8.00;;;19.20;83.30;;;;;;4900990;29;20215;-78
2022/04/06 15:47:27;;;;;;;7.53;7.23;;;19.30;81.20;;;;;;4902088;29;20629;-78
2022/04/06 15:49:55;;;;;;;3.37;3.10;;;19.70;82.00;;;;;;4901353;29;20688;-78
2022/04/06 15:52:21;;;;;;;8.53;8.23;;;18.90;81.40;;;;;;4900291;29;20286;-78
2022/04/06 15:54:47;;;;;;;18.00;17.23;;;18.10;85.50;;;;;;4900838;29;20275;-78